Record high temperature 44.9°C Record low temperature -0.3°C Record high gust 87.3 km/h Record high average 77.7 km/h Record daily rain 484.8 mm Record low windchill -5.8°C Record high barometer 1043.6 hPa Record low barometer 978.0 hPa
Daily high pressure 1015.9 mb Daily low pressure 1014.8 mb Daily low windchill 21.6°C Daily high heat index 25.8°C Daily high gust speed 14.8 kmh SSE Daily high average speed 7.6 kmh WSW
Estación de MeteoMurcia.com -------- Murcia-Puente Tocinos
Ultima grabación a: 10:20 Data: 23 June 2018, time of next update: 10:30
Tiempo actualClear Temperatura actual25.8°C (78.4°F) (Indice de Calor25.8°C ), Temperatura aparente 25.7°C
Temperatura máxima (desde medianoche)25.8°C at: 10:18 Temperatura mínima (desde medianoche)21.6°C at: 07:05
Velocidad media del viento (diez minutos)7.4 kmh (4.0 kts) Dirección del viento (diez minutos)WSW (239°)
Indice de Calor25.8°C ráfagas maxima (última hora)14.1 kmh (7.6 kts) at: 09:56
ráfagas maxima (desde medianoche)14.8 kmh (8.0 kts) at: 09:56 Maximo media de un minuto (desde medianoche)7.6 kmh (4.1 kts) at: 10:05
Lluvia (última hora)0.0 mm Lluvia (desde medianoche)0.0 mm (0.00 in.)---
Lluvia Este mes 24.9 mm (0.98 in.) Lluvia Hasta la fecha este año138.9 mm (5.47 in.)
Lluvia máxima por minuto (última hora)0.0 mm/min Lluvia maxima por hora (últimas 6 horas)0.0 mm/hora
Lluvia de ayer 0.0 mm Punto de rocío 13.0°C (Wet Bulb :18.3°C )
Humedad 45 %, Humidex 28.6°C Barómetro corregido a msl1015.8 mb
cambio de presión+0.3 mb (última hora) Tendencia (últimas 1 hora)ESTACIONARIO
cambio de presión (últimas 12 horas)+1.4 mb cambio de presión (últimas 6 horas)+1.0 mb
Current Temp. Interna 29.5°C
Current Hum. Interna 39%


Última imagen cámara web


Weather report/warning/Metars

Alicante / El Altet, Spain (LEAL) 38-17N 000-33W 31M
Jun 23, 2018 - 04:00 AM EDT / 2018.06.23 0800 UTC
Wind: from the E (080 degrees) at 9 MPH (8 KT):0
Visibility: greater than 7 mile(s):0
Temperature: 80 F (27 C)
Dew Point: 60 F (16 C)
Relative Humidity: 50%
Pressure (altimeter): 30.03 in. Hg (1017 hPa)
ob: LEAL 230800Z 08008KT CAVOK 27/16 Q1017 NOSIG
cycle: 8
Murcia / San Javier, Spain (LELC) 37-47N 000-48W 3M
Jun 23, 2018 - 04:00 AM EDT / 2018.06.23 0800 UTC
Wind: from the NE (050 degrees) at 8 MPH (7 KT) (direction variable):0
Visibility: greater than 7 mile(s):0
Temperature: 80 F (27 C)
Dew Point: 59 F (15 C)
Relative Humidity: 47%
Pressure (altimeter): 30.03 in. Hg (1017 hPa)
ob: LELC 230800Z 05007KT 360V080 CAVOK 27/15 Q1017 NOSIG
cycle: 8
Murcia / Alcantarilla, Spain (LERI) 37-57N 001-14W 75M
Jun 23, 2018 - 04:00 AM EDT / 2018.06.23 0800 UTC
Wind: Variable at 2 MPH (2 KT):0
Visibility: greater than 7 mile(s):0
Temperature: 78 F (26 C)
Dew Point: 53 F (12 C)
Relative Humidity: 41%
Pressure (altimeter): 30.06 in. Hg (1018 hPa)
ob: LERI 230800Z VRB02KT CAVOK 26/12 Q1018 NOSIG
cycle: 8
Gerona / Costa Brava, Spain (LEGE) 41-54N 002-46E 129M
Jun 23, 2018 - 04:00 AM EDT / 2018.06.23 0800 UTC
Wind: from the ENE (070 degrees) at 3 MPH (3 KT) (direction variable):0
Visibility: greater than 7 mile(s):0
Sky conditions: mostly cloudy
Temperature: 73 F (23 C)
Dew Point: 51 F (11 C)
Relative Humidity: 46%
Pressure (altimeter): 30.09 in. Hg (1019 hPa)
ob: LEGE 230800Z 07003KT 360V150 9999 FEW040 BKN055 23/11 Q1019
cycle: 8
Madri-Colmenar, Spain (LECV) 40-39N 003-44W
Jun 23, 2018 - 04:00 AM EDT / 2018.06.23 0800 UTC
Wind: from the E (100 degrees) at 5 MPH (4 KT):0
Visibility: greater than 7 mile(s):0
Temperature: 77 F (25 C)
Dew Point: 55 F (13 C)
Relative Humidity: 47%
Pressure (altimeter): 30.15 in. Hg (1021 hPa)
ob: LECV 230800Z 10004KT CAVOK 25/13 Q1021
cycle: 8
Asturias / Aviles, Spain (LEAS) 43-33N 006-02W 130M
Jun 23, 2018 - 04:00 AM EDT / 2018.06.23 0800 UTC
Wind: from the E (090 degrees) at 10 MPH (9 KT) (direction variable):0
Visibility: greater than 7 mile(s):0
Temperature: 68 F (20 C)
Dew Point: 57 F (14 C)
Relative Humidity: 68%
Pressure (altimeter): 30.15 in. Hg (1021 hPa)
ob: LEAS 230800Z 09009KT 060V120 CAVOK 20/14 Q1021 NOSIG
cycle: 8
Almeria / Aeropuerto, Spain (LEAM) 36-51N 002-23W 21M
Jun 23, 2018 - 04:00 AM EDT / 2018.06.23 0800 UTC
Wind: from the ENE (060 degrees) at 9 MPH (8 KT) (direction variable):0
Visibility: greater than 7 mile(s):0
Temperature: 86 F (30 C)
Dew Point: 51 F (11 C)
Relative Humidity: 30%
Pressure (altimeter): 30.00 in. Hg (1016 hPa)
ob: LEAM 230800Z 06008KT 030V100 CAVOK 30/11 Q1016
cycle: 8
Pamplona / Noain, Spain (LEPP) 42-46N 001-38W 453M
Jun 23, 2018 - 04:00 AM EDT / 2018.06.23 0800 UTC
Wind: from the WNW (300 degrees) at 5 MPH (4 KT) (direction variable):0
Visibility: greater than 7 mile(s):0
Temperature: 66 F (19 C)
Dew Point: 51 F (11 C)
Relative Humidity: 59%
Pressure (altimeter): 30.15 in. Hg (1021 hPa)
ob: LEPP 230800Z 30004KT 250V340 CAVOK 19/11 Q1021
cycle: 8
Badajoz / Talavera La Real, Spain (LEBZ) 38-53N 006-49W 192M
Jun 23, 2018 - 04:00 AM EDT / 2018.06.23 0800 UTC
Wind: Calm:0
Visibility: greater than 7 mile(s):0
Temperature: 77 F (25 C)
Dew Point: 62 F (17 C)
Relative Humidity: 61%
Pressure (altimeter): 30.00 in. Hg (1016 hPa)
ob: LEBZ 230800Z 00000KT CAVOK 25/17 Q1016
cycle: 8
Albacete / Los Llanos, Spain (LEAB) 38-57N 001-51W 704M
Jun 23, 2018 - 04:00 AM EDT / 2018.06.23 0800 UTC
Wind: from the SSE (160 degrees) at 3 MPH (3 KT) (direction variable):0
Visibility: greater than 7 mile(s):0
Temperature: 77 F (25 C)
Dew Point: 51 F (11 C)
Relative Humidity: 41%
Pressure (altimeter): 30.12 in. Hg (1020 hPa)
ob: LEAB 230800Z 16003KT 100V220 CAVOK 25/11 Q1020 NOSIG
cycle: 8



La informacion se graba a intervalos de 2 minutos, pero hay info grabada cada minuto. Optimizado para 800*600 y Color verdadero. Use el boton de

Use the RECARGA en su navegador para recojer la ulima info.

Clicar aquí para regarga diaria de medias/extremas del mes














Created by "Weather Display" software version 10.37S at this start time/date 14:51:08 14/06/2018

La estación de MeteoMurcia.com, publica sus datos en los siguientes proyectos:

Meteoclimatic www.awekas.at

W3Counter
Web Analytics